Time;durP1;ratioP1;P1;durP2;ratioP2;P2;SDS_P1;SDS_P2;PMS_P1;PMS_P2;Temp;Humidity;BMP_temperature;BMP_pressure;BME280_temperature;BME280_humidity;BME280_pressure;Samples;Min_cycle;Max_cycle;Signal;HPM_P1;HPM_P2
2021/07/26 00:01:14;;;;;;;6.60;5.20;;;18.90;99.90;;;;;;5039352;28;20055;-86
2021/07/26 00:03:42;;;;;;;5.43;4.40;;;19.00;99.90;;;;;;5052900;28;20041;-86
2021/07/26 00:06:16;;;;;;;5.53;4.70;;;18.90;99.90;;;;;;5070126;28;20480;-85
2021/07/26 00:08:42;;;;;;;7.13;5.38;;;18.90;99.90;;;;;;5051800;28;20039;-85
2021/07/26 00:11:10;;;;;;;6.90;5.05;;;18.80;99.90;;;;;;5063235;28;20033;-85
2021/07/26 00:13:37;;;;;;;5.82;4.60;;;18.80;99.90;;;;;;5050868;28;20507;-85
2021/07/26 00:16:04;;;;;;;6.50;5.22;;;18.80;99.90;;;;;;5017920;28;20038;-85
2021/07/26 00:18:31;;;;;;;7.45;5.10;;;18.80;99.90;;;;;;5050668;28;20045;-86
2021/07/26 00:21:00;;;;;;;6.35;4.88;;;18.80;99.90;;;;;;5051827;28;20043;-90
2021/07/26 00:23:29;;;;;;;6.40;4.87;;;18.80;99.90;;;;;;5035979;28;20132;-90
2021/07/26 00:25:55;;;;;;;5.78;4.65;;;18.70;99.90;;;;;;5050095;28;20035;-91
2021/07/26 00:28:22;;;;;;;5.80;4.97;;;18.70;99.90;;;;;;5049520;28;20086;-90
2021/07/26 00:30:47;;;;;;;5.75;5.00;;;18.70;99.90;;;;;;5046012;28;20033;-90
2021/07/26 00:34:01;;;;;;;6.65;5.43;;;18.70;99.90;;;;;;5028139;28;20041;-91
2021/07/26 00:36:28;;;;;;;6.28;4.65;;;18.70;99.90;;;;;;5041671;28;20036;-90
2021/07/26 00:38:54;;;;;;;5.18;4.28;;;18.60;99.90;;;;;;5038228;28;20105;-91
2021/07/26 00:41:22;;;;;;;6.57;5.30;;;18.60;99.90;;;;;;5025091;28;20072;-90
2021/07/26 00:43:48;;;;;;;6.15;4.55;;;18.60;99.90;;;;;;5034997;28;20033;-91
2021/07/26 00:46:13;;;;;;;5.72;4.57;;;18.60;99.90;;;;;;5049018;28;20033;-90
2021/07/26 00:48:42;;;;;;;7.80;5.20;;;18.60;99.90;;;;;;5048143;28;20492;-91
2021/07/26 00:51:08;;;;;;;5.80;4.50;;;18.60;99.90;;;;;;5049319;28;20041;-89
2021/07/26 00:53:34;;;;;;;6.28;4.43;;;18.60;99.90;;;;;;5034772;28;20029;-90
2021/07/26 00:56:01;;;;;;;5.22;4.32;;;18.60;99.90;;;;;;5034215;28;20033;-90
2021/07/26 00:58:27;;;;;;;5.85;4.30;;;18.50;99.90;;;;;;5050296;28;20038;-90
2021/07/26 01:00:52;;;;;;;6.15;4.70;;;18.60;99.90;;;;;;5034493;28;20033;-90
2021/07/26 01:03:21;;;;;;;5.85;4.78;;;18.60;99.90;;;;;;5049937;28;20124;-90
2021/07/26 01:05:47;;;;;;;5.35;4.55;;;18.50;99.90;;;;;;5049669;28;20037;-89
2021/07/26 01:08:14;;;;;;;6.78;4.40;;;18.50;99.90;;;;;;5050027;28;20033;-90
2021/07/26 01:10:40;;;;;;;6.32;4.85;;;18.50;99.90;;;;;;5042122;28;20041;-91
2021/07/26 01:13:06;;;;;;;5.35;4.28;;;18.40;99.90;;;;;;5041761;28;20057;-89
2021/07/26 01:15:40;;;;;;;6.07;4.47;;;18.40;99.90;;;;;;5034333;28;20065;-90
2021/07/26 01:18:28;;;;;;;5.47;3.97;;;18.40;99.90;;;;;;5029806;28;20096;-90
2021/07/26 01:20:59;;;;;;;6.30;5.00;;;18.40;99.90;;;;;;5030292;28;20038;-90
2021/07/26 01:23:28;;;;;;;5.78;4.70;;;18.40;99.90;;;;;;5029466;28;20069;-89
2021/07/26 01:25:54;;;;;;;6.03;4.65;;;18.30;99.90;;;;;;5033112;28;20066;-91
2021/07/26 01:28:22;;;;;;;5.80;4.30;;;18.30;99.90;;;;;;5041560;28;20082;-90
2021/07/26 01:30:49;;;;;;;5.32;4.25;;;18.30;99.90;;;;;;5046024;28;20034;-90
2021/07/26 01:33:19;;;;;;;5.47;4.40;;;18.30;99.90;;;;;;5049756;28;20076;-90
2021/07/26 01:35:45;;;;;;;7.65;5.22;;;18.20;99.90;;;;;;5048924;28;20033;-89
2021/07/26 01:38:11;;;;;;;6.32;4.30;;;18.20;99.90;;;;;;5033954;28;20030;-90
2021/07/26 01:40:39;;;;;;;4.97;4.22;;;18.10;99.90;;;;;;5031491;28;20049;-89
2021/07/26 01:43:09;;;;;;;5.47;4.53;;;18.10;99.90;;;;;;5032723;28;20065;-90
2021/07/26 01:45:36;;;;;;;6.03;4.40;;;18.10;99.90;;;;;;5032319;28;20048;-90
2021/07/26 01:48:19;;;;;;;7.05;4.72;;;18.10;99.90;;;;;;5047969;28;20358;-91
2021/07/26 01:50:57;;;;;;;7.28;4.85;;;18.10;99.90;;;;;;5032815;28;20163;-90
2021/07/26 01:53:23;;;;;;;7.40;4.38;;;18.10;99.90;;;;;;5048061;28;20034;-90
2021/07/26 01:55:49;;;;;;;6.10;4.60;;;18.10;99.90;;;;;;5031020;28;20045;-89
2021/07/26 01:58:16;;;;;;;6.00;4.55;;;18.10;99.90;;;;;;5048651;28;20042;-90
2021/07/26 02:00:42;;;;;;;5.57;4.60;;;18.00;99.90;;;;;;5034231;28;20045;-91
2021/07/26 02:03:07;;;;;;;6.25;4.28;;;18.00;99.90;;;;;;5049688;28;20033;-90
2021/07/26 02:05:33;;;;;;;5.75;4.18;;;18.00;99.90;;;;;;5049962;28;20029;-90
2021/07/26 02:07:58;;;;;;;7.30;4.65;;;18.00;99.90;;;;;;5049185;28;20346;-90
2021/07/26 02:10:24;;;;;;;7.88;4.90;;;18.00;99.90;;;;;;5048920;28;20056;-90
2021/07/26 02:12:50;;;;;;;8.88;4.75;;;18.00;99.90;;;;;;5036393;28;20033;-90
2021/07/26 02:15:15;;;;;;;5.93;4.43;;;18.00;99.90;;;;;;5036242;28;20029;-90
2021/07/26 02:17:41;;;;;;;6.22;4.40;;;18.00;99.90;;;;;;5052809;28;20068;-90
2021/07/26 02:20:08;;;;;;;6.32;4.60;;;18.00;99.90;;;;;;5035734;28;20061;-89
2021/07/26 02:22:34;;;;;;;5.85;4.07;;;18.00;99.90;;;;;;5052626;28;20053;-88
2021/07/26 02:25:00;;;;;;;6.43;4.35;;;18.00;99.90;;;;;;5051896;28;20124;-89
2021/07/26 02:27:26;;;;;;;6.20;4.30;;;18.00;99.90;;;;;;5052134;28;20075;-88
2021/07/26 02:29:51;;;;;;;7.88;4.65;;;18.00;99.90;;;;;;5052383;28;20037;-89
2021/07/26 02:32:17;;;;;;;5.57;4.07;;;18.00;99.90;;;;;;5053442;28;20025;-89
2021/07/26 02:34:42;;;;;;;5.35;3.92;;;18.00;99.90;;;;;;5035496;28;20033;-89
2021/07/26 02:37:09;;;;;;;5.45;4.20;;;17.90;99.90;;;;;;5021969;28;20087;-89
2021/07/26 02:39:35;;;;;;;4.55;3.38;;;17.90;99.90;;;;;;5039230;28;20041;-89
2021/07/26 02:42:01;;;;;;;5.28;4.00;;;17.90;99.90;;;;;;5055958;28;20044;-89
2021/07/26 02:44:26;;;;;;;6.57;4.07;;;17.90;99.90;;;;;;5055805;28;20489;-89
2021/07/26 02:46:52;;;;;;;5.85;4.32;;;17.90;99.90;;;;;;5055374;28;20501;-90
2021/07/26 02:49:17;;;;;;;4.70;3.58;;;17.90;99.90;;;;;;5056752;28;20455;-89
2021/07/26 02:51:43;;;;;;;6.50;3.90;;;17.90;99.90;;;;;;5038705;28;20116;-89
2021/07/26 02:54:09;;;;;;;4.63;3.72;;;17.90;99.90;;;;;;5055789;28;20127;-89
2021/07/26 02:56:35;;;;;;;5.60;4.22;;;17.90;99.90;;;;;;5055648;28;20478;-89
2021/07/26 02:59:00;;;;;;;5.65;4.07;;;17.90;99.90;;;;;;5055638;28;20388;-88
2021/07/26 03:01:26;;;;;;;6.05;3.90;;;17.90;99.90;;;;;;5056489;28;20048;-91
2021/07/26 03:03:52;;;;;;;6.65;4.13;;;17.90;99.90;;;;;;5055882;28;20086;-89
2021/07/26 03:06:19;;;;;;;6.72;3.70;;;17.80;99.90;;;;;;5039202;28;20028;-89
2021/07/26 03:08:45;;;;;;;5.80;3.63;;;17.80;99.90;;;;;;5055489;28;20040;-89
2021/07/26 03:11:12;;;;;;;6.18;3.95;;;17.90;99.90;;;;;;5055674;28;20182;-90
2021/07/26 03:13:39;;;;;;;5.70;3.33;;;17.80;99.90;;;;;;5055723;28;20048;-89
2021/07/26 03:16:06;;;;;;;5.63;3.47;;;17.80;99.90;;;;;;5055893;28;20072;-90
2021/07/26 03:18:32;;;;;;;6.80;4.13;;;17.80;99.90;;;;;;5056339;28;20033;-90
2021/07/26 03:20:58;;;;;;;4.93;3.80;;;17.80;99.90;;;;;;5055626;28;20037;-89
2021/07/26 03:23:23;;;;;;;6.07;3.33;;;17.80;99.90;;;;;;5038841;28;20112;-89
2021/07/26 03:25:49;;;;;;;6.43;3.83;;;17.70;99.90;;;;;;5055778;28;20048;-89
2021/07/26 03:28:14;;;;;;;5.10;3.63;;;17.70;99.90;;;;;;5038222;28;20041;-88
2021/07/26 03:30:40;;;;;;;5.53;3.72;;;17.70;99.90;;;;;;5054939;28;20035;-89
2021/07/26 03:33:06;;;;;;;5.25;3.70;;;17.70;99.90;;;;;;5056035;28;20041;-89
2021/07/26 03:35:32;;;;;;;4.60;3.28;;;17.70;99.90;;;;;;5055246;28;20033;-89
2021/07/26 03:37:58;;;;;;;5.05;3.75;;;17.60;99.90;;;;;;5055062;28;20056;-89
2021/07/26 03:40:25;;;;;;;4.57;3.63;;;17.60;99.90;;;;;;5054768;28;20025;-89
2021/07/26 03:42:50;;;;;;;6.25;3.70;;;17.60;99.90;;;;;;5054863;28;20128;-89
2021/07/26 03:45:18;;;;;;;4.72;3.95;;;17.60;99.90;;;;;;5038011;28;20476;-89
2021/07/26 03:47:44;;;;;;;5.85;4.20;;;17.60;99.90;;;;;;5054271;28;20087;-88
2021/07/26 03:50:11;;;;;;;4.43;3.38;;;17.60;99.90;;;;;;5054927;28;20033;-88
2021/07/26 03:52:50;;;;;;;5.22;3.45;;;17.60;99.90;;;;;;5054673;28;20124;-89
2021/07/26 03:55:17;;;;;;;6.80;3.80;;;17.60;99.90;;;;;;5056126;28;20033;-89
2021/07/26 03:57:44;;;;;;;6.15;4.18;;;17.60;99.90;;;;;;5056024;28;20046;-89
2021/07/26 04:00:13;;;;;;;4.75;3.40;;;17.50;99.90;;;;;;5054563;28;20037;-89
2021/07/26 04:02:41;;;;;;;4.47;3.55;;;17.50;99.90;;;;;;5054918;28;20068;-89
2021/07/26 04:05:11;;;;;;;7.25;4.45;;;17.50;99.90;;;;;;5055956;28;20120;-89
2021/07/26 04:07:39;;;;;;;5.43;4.15;;;17.50;99.90;;;;;;5055922;28;20037;-90
2021/07/26 04:10:07;;;;;;;5.55;3.38;;;17.50;99.90;;;;;;5053895;28;20043;-90
2021/07/26 04:12:35;;;;;;;7.15;4.25;;;17.50;99.90;;;;;;5021279;28;20033;-90
2021/07/26 04:15:08;;;;;;;6.65;3.90;;;17.50;99.90;;;;;;5054315;28;20073;-89
2021/07/26 04:17:34;;;;;;;4.95;3.80;;;17.50;99.90;;;;;;5053939;28;20033;-89
2021/07/26 04:19:59;;;;;;;5.78;4.05;;;17.50;99.90;;;;;;5054301;28;20102;-89
2021/07/26 04:22:25;;;;;;;6.00;3.83;;;17.50;99.90;;;;;;5037112;28;20033;-89
2021/07/26 04:24:50;;;;;;;4.38;3.40;;;17.50;99.90;;;;;;5054287;28;20030;-89
2021/07/26 04:27:16;;;;;;;5.85;4.28;;;17.50;99.90;;;;;;5037093;28;20163;-90
2021/07/26 04:29:42;;;;;;;5.80;4.18;;;17.50;99.90;;;;;;5054465;28;20037;-89
2021/07/26 04:32:10;;;;;;;4.28;3.40;;;17.50;99.90;;;;;;5037359;28;20088;-89
2021/07/26 04:34:36;;;;;;;4.95;3.90;;;17.50;99.90;;;;;;5021230;28;20044;-89
2021/07/26 04:37:02;;;;;;;5.57;4.20;;;17.50;99.90;;;;;;5037225;28;20211;-89
2021/07/26 04:39:28;;;;;;;5.63;3.80;;;17.50;99.90;;;;;;5053349;28;20040;-90
2021/07/26 04:41:53;;;;;;;5.28;4.32;;;17.50;99.90;;;;;;5037394;28;20029;-90
2021/07/26 04:44:19;;;;;;;6.38;4.28;;;17.50;99.90;;;;;;5053616;28;20035;-89
2021/07/26 04:46:44;;;;;;;5.28;4.25;;;17.60;99.90;;;;;;5053552;28;20039;-89
2021/07/26 04:49:10;;;;;;;7.43;4.53;;;17.60;99.90;;;;;;5053058;28;20033;-89
2021/07/26 04:51:37;;;;;;;5.97;3.85;;;17.60;99.90;;;;;;5053645;28;20083;-89
2021/07/26 04:54:03;;;;;;;5.32;4.07;;;17.60;99.90;;;;;;5054507;28;20056;-89
2021/07/26 04:56:28;;;;;;;6.40;4.90;;;17.60;99.90;;;;;;5054682;28;20037;-88
2021/07/26 04:58:54;;;;;;;7.55;4.80;;;17.60;99.90;;;;;;5052545;28;20033;-88
2021/07/26 05:01:19;;;;;;;7.10;4.68;;;17.60;99.90;;;;;;5053186;28;20078;-88
2021/07/26 05:03:45;;;;;;;8.45;6.53;;;17.60;99.90;;;;;;5053063;28;20389;-88
2021/07/26 05:06:11;;;;;;;8.65;6.40;;;17.60;99.90;;;;;;5053155;28;20080;-89
2021/07/26 05:08:36;;;;;;;7.35;5.78;;;17.60;99.90;;;;;;5052775;28;20389;-88
2021/07/26 05:11:02;;;;;;;6.95;5.82;;;17.60;99.90;;;;;;5052988;28;20036;-88
2021/07/26 05:13:28;;;;;;;7.43;5.80;;;17.60;99.90;;;;;;5053114;28;20366;-89
2021/07/26 05:15:53;;;;;;;6.95;5.50;;;17.60;99.90;;;;;;5053148;28;20106;-89
2021/07/26 05:18:19;;;;;;;6.18;5.38;;;17.60;99.90;;;;;;5052877;28;20072;-88
2021/07/26 05:20:44;;;;;;;7.90;5.40;;;17.60;99.90;;;;;;5052996;28;20037;-89
2021/07/26 05:23:11;;;;;;;8.23;5.40;;;17.60;99.90;;;;;;5054253;28;20104;-89
2021/07/26 05:25:42;;;;;;;6.28;4.97;;;17.70;99.90;;;;;;5054109;28;20053;-88
2021/07/26 05:28:08;;;;;;;6.13;4.28;;;17.70;99.90;;;;;;5052682;28;20477;-89
2021/07/26 05:30:33;;;;;;;8.85;4.97;;;17.80;99.90;;;;;;5052720;28;20035;-87
2021/07/26 05:32:59;;;;;;;6.13;4.50;;;17.90;99.90;;;;;;5036167;28;20033;-87
2021/07/26 05:35:24;;;;;;;6.25;4.68;;;17.90;99.90;;;;;;5052688;28;20029;-87
2021/07/26 05:37:50;;;;;;;7.10;5.03;;;18.00;99.90;;;;;;5052500;28;20041;-87
2021/07/26 05:40:16;;;;;;;6.63;5.15;;;18.00;99.90;;;;;;5036010;28;20444;-88
2021/07/26 05:42:45;;;;;;;7.55;5.50;;;18.00;99.90;;;;;;5052561;28;20036;-89
2021/07/26 05:45:11;;;;;;;9.13;6.13;;;18.00;99.90;;;;;;5052542;28;20029;-88
2021/07/26 05:47:36;;;;;;;7.88;5.53;;;18.10;99.90;;;;;;5053440;28;20041;-88
2021/07/26 05:50:05;;;;;;;7.65;5.80;;;18.10;99.90;;;;;;5052233;28;20044;-89
2021/07/26 05:52:30;;;;;;;7.97;5.90;;;18.10;99.90;;;;;;5052211;28;20480;-89
2021/07/26 05:54:57;;;;;;;6.72;5.05;;;18.20;99.90;;;;;;5052360;28;20037;-88
2021/07/26 05:57:26;;;;;;;7.20;5.13;;;18.20;99.90;;;;;;5052076;28;20037;-88
2021/07/26 05:59:55;;;;;;;9.43;5.60;;;18.30;99.90;;;;;;5052253;28;20029;-87
2021/07/26 06:02:22;;;;;;;8.90;6.20;;;18.30;99.90;;;;;;5051824;28;20032;-90
2021/07/26 06:04:48;;;;;;;8.40;5.93;;;18.40;99.90;;;;;;5019313;28;20040;-88
2021/07/26 06:07:17;;;;;;;6.60;5.00;;;18.50;99.90;;;;;;5044915;28;20033;-88
2021/07/26 06:09:46;;;;;;;13.10;6.75;;;18.60;99.90;;;;;;5065037;28;20029;-87
2021/07/26 06:12:11;;;;;;;9.77;7.18;;;18.60;99.90;;;;;;5047780;28;20025;-85
2021/07/26 06:14:39;;;;;;;8.32;6.32;;;18.70;99.90;;;;;;5068328;28;20041;-87
2021/07/26 06:17:07;;;;;;;9.93;6.50;;;18.70;99.90;;;;;;5073260;28;20020;-87
2021/07/26 06:19:35;;;;;;;11.32;7.15;;;18.80;99.90;;;;;;5075360;28;20060;-85
2021/07/26 06:22:01;;;;;;;8.85;6.63;;;18.80;99.90;;;;;;5064224;28;20104;-85
2021/07/26 06:24:32;;;;;;;9.60;7.53;;;18.80;99.90;;;;;;5036762;28;20039;-84
2021/07/26 06:27:04;;;;;;;10.32;7.53;;;18.80;99.90;;;;;;5054050;28;20056;-85
2021/07/26 06:29:33;;;;;;;8.77;7.45;;;18.80;99.90;;;;;;5051103;28;20037;-86
2021/07/26 06:32:15;;;;;;;8.50;6.85;;;18.80;99.90;;;;;;5052634;28;20448;-86
2021/07/26 06:34:45;;;;;;;9.93;7.10;;;18.80;99.90;;;;;;5034087;28;20041;-86
2021/07/26 06:37:13;;;;;;;9.93;7.25;;;18.80;99.90;;;;;;5064038;28;20044;-85
2021/07/26 06:39:43;;;;;;;9.23;7.43;;;18.80;99.90;;;;;;5053189;28;20028;-85
2021/07/26 06:42:11;;;;;;;8.15;6.60;;;18.80;99.90;;;;;;5053239;28;20094;-85
2021/07/26 06:44:44;;;;;;;9.77;7.97;;;18.90;99.90;;;;;;5038964;28;20033;-84
2021/07/26 06:47:10;;;;;;;10.95;8.45;;;18.90;99.90;;;;;;5053197;28;20036;-85
2021/07/26 06:49:38;;;;;;;11.27;9.00;;;18.90;99.90;;;;;;5053655;28;20029;-85
2021/07/26 06:52:06;;;;;;;12.20;8.32;;;19.00;99.90;;;;;;5053164;28;20095;-87
2021/07/26 06:54:33;;;;;;;11.02;7.50;;;19.00;99.90;;;;;;5054548;28;20083;-86
2021/07/26 06:57:07;;;;;;;11.57;9.40;;;19.20;99.90;;;;;;5035891;28;20033;-86
2021/07/26 06:59:34;;;;;;;11.57;9.65;;;19.30;99.90;;;;;;5051498;28;20065;-86
2021/07/26 07:02:00;;;;;;;11.68;9.95;;;19.30;99.90;;;;;;5051628;28;20041;-85
2021/07/26 07:04:27;;;;;;;10.45;8.70;;;19.30;99.90;;;;;;5036510;28;20033;-85
2021/07/26 07:06:53;;;;;;;9.13;7.20;;;19.30;99.90;;;;;;5052581;28;20366;-86
2021/07/26 07:09:19;;;;;;;9.68;7.72;;;19.20;99.90;;;;;;5035838;28;20037;-85
2021/07/26 07:11:53;;;;;;;13.18;9.20;;;19.20;99.90;;;;;;5035795;28;20029;-85
2021/07/26 07:14:28;;;;;;;10.43;8.05;;;19.20;99.90;;;;;;5054298;28;20055;-86
2021/07/26 07:16:54;;;;;;;10.43;8.77;;;19.30;99.90;;;;;;5052952;28;20135;-85
2021/07/26 07:19:20;;;;;;;9.80;8.23;;;19.40;99.90;;;;;;5052710;28;20049;-86
2021/07/26 07:21:47;;;;;;;11.43;8.70;;;19.50;99.90;;;;;;5053069;28;20147;-85
2021/07/26 07:24:15;;;;;;;11.20;7.82;;;19.60;99.90;;;;;;5035850;28;20131;-85
2021/07/26 07:26:41;;;;;;;10.15;8.40;;;19.70;99.90;;;;;;5052970;28;20033;-86
2021/07/26 07:29:08;;;;;;;10.57;7.15;;;19.90;99.90;;;;;;5036347;28;20075;-86
2021/07/26 07:31:36;;;;;;;9.70;7.75;;;20.10;99.90;;;;;;5052622;28;20025;-86
2021/07/26 07:34:03;;;;;;;8.75;6.97;;;20.30;99.90;;;;;;5019376;28;20496;-86
2021/07/26 07:36:35;;;;;;;8.35;6.28;;;20.50;99.90;;;;;;5035767;28;20040;-88
2021/07/26 07:39:02;;;;;;;8.32;7.43;;;20.70;99.90;;;;;;5052188;28;20036;-86
2021/07/26 07:41:29;;;;;;;12.05;8.93;;;20.80;99.90;;;;;;5050431;28;20496;-88
2021/07/26 07:43:56;;;;;;;9.75;8.18;;;20.90;99.90;;;;;;5043216;28;20033;-87
2021/07/26 07:46:25;;;;;;;9.27;7.30;;;21.10;99.90;;;;;;5059609;28;20111;-86
2021/07/26 07:48:52;;;;;;;10.60;7.82;;;21.20;99.90;;;;;;5058090;28;20481;-87
2021/07/26 07:51:20;;;;;;;7.72;6.93;;;21.20;99.90;;;;;;5049155;28;20102;-86
2021/07/26 07:54:04;;;;;;;7.63;6.43;;;21.20;99.90;;;;;;5069350;28;20134;-86
2021/07/26 07:56:33;;;;;;;7.32;6.10;;;21.10;99.90;;;;;;5049232;28;20460;-86
2021/07/26 07:59:05;;;;;;;8.57;6.85;;;21.10;99.90;;;;;;5050995;28;20037;-87
2021/07/26 08:01:34;;;;;;;9.40;7.13;;;21.20;99.90;;;;;;5052407;28;20450;-87
2021/07/26 08:04:05;;;;;;;8.98;5.90;;;21.20;99.90;;;;;;5068113;28;20568;-86
2021/07/26 08:06:34;;;;;;;9.82;6.80;;;21.20;99.90;;;;;;5052131;28;20120;-86
2021/07/26 08:09:04;;;;;;;6.80;5.03;;;21.10;99.90;;;;;;5038478;28;20041;-86
2021/07/26 08:11:34;;;;;;;7.07;5.55;;;21.10;99.90;;;;;;5031585;28;20405;-87
2021/07/26 08:14:00;;;;;;;7.68;6.13;;;21.20;99.90;;;;;;5019556;28;20384;-87
2021/07/26 08:16:29;;;;;;;6.72;5.60;;;21.20;99.90;;;;;;5042703;28;20035;-86
2021/07/26 08:18:57;;;;;;;7.07;5.75;;;21.10;99.90;;;;;;5058951;28;20060;-86
2021/07/26 08:21:25;;;;;;;6.68;5.15;;;21.10;99.90;;;;;;5057583;28;20124;-87
2021/07/26 08:23:54;;;;;;;6.72;5.50;;;21.20;99.90;;;;;;5035366;28;20044;-86
2021/07/26 08:26:30;;;;;;;7.43;5.70;;;21.20;99.90;;;;;;5048477;28;20485;-86
2021/07/26 08:28:58;;;;;;;6.57;5.03;;;21.30;99.90;;;;;;5031447;28;20370;-86
2021/07/26 08:31:28;;;;;;;4.97;4.32;;;21.30;99.90;;;;;;5048900;28;20079;-86
2021/07/26 08:33:55;;;;;;;5.80;4.18;;;21.40;99.90;;;;;;5042471;28;20038;-87
2021/07/26 08:36:30;;;;;;;7.15;4.65;;;21.50;99.90;;;;;;5058658;28;20037;-86
2021/07/26 08:39:09;;;;;;;5.97;4.93;;;21.50;99.90;;;;;;5071205;28;20036;-86
2021/07/26 08:41:57;;;;;;;5.38;4.47;;;21.50;99.90;;;;;;5070605;28;20040;-87
2021/07/26 08:44:26;;;;;;;5.10;3.92;;;21.60;99.90;;;;;;5052521;28;20473;-87
2021/07/26 08:46:53;;;;;;;5.07;4.40;;;21.60;99.90;;;;;;5051041;28;20784;-86
2021/07/26 08:49:20;;;;;;;5.75;4.22;;;21.70;99.90;;;;;;5045891;28;20036;-87
2021/07/26 08:51:49;;;;;;;5.00;4.10;;;21.80;99.90;;;;;;5051252;28;20040;-86
2021/07/26 08:54:15;;;;;;;5.90;4.45;;;21.90;99.90;;;;;;5051401;28;20037;-88
2021/07/26 08:56:43;;;;;;;6.38;4.97;;;21.90;99.90;;;;;;5051365;28;20025;-85
2021/07/26 08:59:10;;;;;;;5.22;4.07;;;21.90;99.90;;;;;;5051049;28;20041;-86
2021/07/26 09:01:43;;;;;;;7.13;5.30;;;21.90;99.90;;;;;;5018336;28;20040;-87
2021/07/26 09:04:14;;;;;;;6.63;5.90;;;22.10;99.90;;;;;;5018513;28;20136;-87
2021/07/26 09:06:41;;;;;;;6.18;4.68;;;22.20;99.90;;;;;;5031073;28;20114;-85
2021/07/26 09:09:08;;;;;;;5.88;4.72;;;22.30;99.90;;;;;;5034012;28;20477;-87
2021/07/26 09:11:45;;;;;;;5.50;4.72;;;22.40;99.90;;;;;;5034066;28;20079;-86
2021/07/26 09:14:39;;;;;;;4.80;4.05;;;22.60;99.90;;;;;;5049291;28;20392;-86
2021/07/26 09:17:09;;;;;;;9.02;5.80;;;22.90;99.90;;;;;;5033975;28;20404;-86
2021/07/26 09:20:01;;;;;;;4.75;4.13;;;23.10;99.90;;;;;;5034013;28;20428;-87
2021/07/26 09:22:36;;;;;;;6.07;4.70;;;23.30;99.90;;;;;;5050319;28;20539;-86
2021/07/26 09:25:20;;;;;;;6.45;4.63;;;23.40;99.90;;;;;;5050519;28;20408;-86
2021/07/26 09:28:05;;;;;;;4.85;3.70;;;23.60;99.90;;;;;;5050199;28;20389;-87
2021/07/26 09:30:41;;;;;;;4.15;3.45;;;23.70;99.90;;;;;;5051616;28;20126;-86
2021/07/26 09:33:36;;;;;;;3.95;2.83;;;23.80;99.90;;;;;;5050437;28;20119;-86
2021/07/26 09:36:15;;;;;;;3.70;2.90;;;23.70;99.90;;;;;;5048214;28;20071;-86
2021/07/26 09:38:56;;;;;;;4.65;3.42;;;23.70;99.90;;;;;;5050437;28;20076;-87
2021/07/26 09:41:48;;;;;;;3.72;2.78;;;23.80;99.90;;;;;;5050180;28;20496;-87
2021/07/26 09:44:27;;;;;;;4.60;2.92;;;24.00;99.90;;;;;;5033233;28;20064;-86
2021/07/26 09:47:21;;;;;;;4.13;2.90;;;24.60;99.90;;;;;;5050671;28;20041;-86
2021/07/26 09:49:49;;;;;;;3.50;2.80;;;24.80;99.90;;;;;;5048762;28;20033;-88
2021/07/26 09:52:22;;;;;;;3.92;2.65;;;24.40;99.90;;;;;;5050365;28;20033;-87
2021/07/26 09:54:52;;;;;;;3.47;2.88;;;24.00;99.90;;;;;;5034048;28;20068;-86
2021/07/26 09:57:23;;;;;;;3.90;3.10;;;23.80;99.90;;;;;;5034025;28;20033;-87
2021/07/26 09:59:56;;;;;;;4.82;3.28;;;23.60;99.90;;;;;;5033191;28;20030;-86
2021/07/26 10:02:24;;;;;;;3.70;2.50;;;23.40;99.90;;;;;;5033690;28;20071;-86
2021/07/26 10:04:50;;;;;;;3.92;2.70;;;23.30;99.90;;;;;;5033391;28;20081;-87
2021/07/26 10:07:19;;;;;;;2.88;2.45;;;23.80;99.90;;;;;;5033738;28;20029;-87
2021/07/26 10:09:49;;;;;;;3.08;2.78;;;24.10;99.90;;;;;;5033142;28;20071;-87
2021/07/26 10:12:20;;;;;;;4.82;2.67;;;24.30;99.90;;;;;;5033625;28;20048;-87
2021/07/26 10:15:06;;;;;;;3.70;2.53;;;24.20;99.90;;;;;;5047369;28;20061;-87
2021/07/26 10:17:34;;;;;;;3.78;2.72;;;24.30;99.90;;;;;;5032135;28;20041;-86
2021/07/26 10:20:09;;;;;;;3.28;2.63;;;24.30;99.90;;;;;;5016307;28;20064;-87
2021/07/26 10:22:40;;;;;;;2.95;2.30;;;24.30;99.90;;;;;;5034505;28;20055;-87
2021/07/26 10:25:16;;;;;;;2.70;2.40;;;24.40;99.90;;;;;;5032494;28;20179;-88
2021/07/26 10:27:47;;;;;;;3.35;2.35;;;24.50;99.90;;;;;;5033236;28;20095;-87
2021/07/26 10:30:36;;;;;;;3.35;2.17;;;24.50;99.90;;;;;;5033701;28;20146;-87
2021/07/26 10:33:13;;;;;;;3.13;2.20;;;24.80;99.90;;;;;;5033301;28;20121;-87
2021/07/26 10:35:52;;;;;;;3.33;2.33;;;25.00;99.90;;;;;;5048375;28;20041;-87
2021/07/26 10:39:09;;;;;;;2.80;2.20;;;24.90;99.90;;;;;;5047878;28;20061;-88
2021/07/26 10:41:54;;;;;;;3.72;3.00;;;24.80;99.90;;;;;;5029597;28;20049;-88
2021/07/26 10:44:32;;;;;;;5.78;3.35;;;24.70;99.90;;;;;;5048344;28;20080;-89
2021/07/26 10:47:06;;;;;;;3.70;3.10;;;24.50;99.90;;;;;;5047680;28;20072;-88
2021/07/26 10:49:50;;;;;;;4.00;2.78;;;24.30;99.90;;;;;;5047355;28;20099;-89
2021/07/26 10:52:33;;;;;;;4.20;2.70;;;24.10;99.90;;;;;;5011772;28;20054;-88
2021/07/26 10:55:02;;;;;;;2.95;2.28;;;24.00;99.90;;;;;;5010957;28;20469;-86
2021/07/26 10:57:46;;;;;;;4.10;2.47;;;23.90;99.90;;;;;;5034991;28;20033;-86
2021/07/26 11:00:24;;;;;;;3.00;2.20;;;23.90;99.90;;;;;;5050433;28;20030;-86
2021/07/26 11:02:54;;;;;;;3.10;2.05;;;24.20;99.90;;;;;;5035128;28;20049;-86
2021/07/26 11:05:29;;;;;;;3.60;1.88;;;24.80;99.90;;;;;;5030409;28;20041;-87
2021/07/26 11:08:43;;;;;;;4.07;1.77;;;25.10;99.90;;;;;;5034556;28;20099;-88
2021/07/26 11:11:40;;;;;;;1.92;1.40;;;25.10;99.90;;;;;;4973773;28;20046;-86
2021/07/26 11:14:14;;;;;;;2.30;1.40;;;25.00;99.90;;;;;;4950638;28;20136;-88
2021/07/26 11:16:56;;;;;;;3.65;1.45;;;25.20;99.90;;;;;;5007727;28;20038;-86
2021/07/26 11:19:44;;;;;;;3.15;1.98;;;25.30;99.90;;;;;;5049891;28;20128;-87
2021/07/26 11:22:29;;;;;;;2.70;1.70;;;25.30;99.90;;;;;;5047653;28;20107;-88
2021/07/26 11:25:05;;;;;;;2.35;1.80;;;25.20;99.90;;;;;;5050376;28;20052;-88
2021/07/26 11:27:32;;;;;;;2.55;2.08;;;25.10;99.90;;;;;;5008347;28;20108;-86
2021/07/26 11:30:07;;;;;;;3.08;2.03;;;25.30;99.90;;;;;;5045842;28;20046;-87
2021/07/26 11:32:51;;;;;;;2.17;1.88;;;25.90;99.90;;;;;;5032640;28;20050;-87
2021/07/26 11:35:30;;;;;;;2.42;1.77;;;26.20;99.90;;;;;;5031642;28;20080;-88
2021/07/26 11:38:04;;;;;;;3.15;1.90;;;26.20;99.90;;;;;;5030594;28;20033;-89
2021/07/26 11:40:36;;;;;;;2.70;1.83;;;25.90;99.90;;;;;;5033845;28;20045;-88
2021/07/26 11:43:34;;;;;;;2.75;1.63;;;25.70;99.90;;;;;;5032114;28;20080;-90
2021/07/26 11:46:01;;;;;;;1.88;1.52;;;25.40;99.90;;;;;;5037045;28;20036;-88
2021/07/26 11:48:55;;;;;;;2.17;1.77;;;25.10;99.90;;;;;;5030445;28;20033;-89
2021/07/26 11:51:24;;;;;;;;;;;25.10;99.90;;;;;;5033028;28;20033;-89
2021/07/26 11:54:08;;;;;;;2.35;1.55;;;25.00;99.90;;;;;;5032981;28;19961;-87
2021/07/26 11:57:03;;;;;;;3.42;1.92;;;25.10;99.90;;;;;;5012362;28;20562;-89
2021/07/26 11:59:40;;;;;;;2.57;1.60;;;25.30;99.90;;;;;;5033892;28;20121;-89
2021/07/26 12:02:22;;;;;;;3.17;2.10;;;25.90;99.90;;;;;;5030603;28;20033;-88
2021/07/26 12:04:56;;;;;;;2.03;1.70;;;26.00;99.90;;;;;;5040039;28;20442;-87
2021/07/26 12:07:42;;;;;;;3.70;1.85;;;26.10;99.90;;;;;;5041677;28;20033;-88
2021/07/26 12:10:13;;;;;;;2.13;1.70;;;26.20;99.90;;;;;;5015786;28;20048;-89
2021/07/26 12:12:49;;;;;;;2.85;1.75;;;26.80;99.90;;;;;;5016274;28;20495;-89
2021/07/26 12:15:31;;;;;;;2.78;1.95;;;27.20;99.90;;;;;;5052159;28;20049;-87
2021/07/26 12:18:41;;;;;;;3.27;1.80;;;27.50;99.90;;;;;;5035112;28;20044;-89
2021/07/26 12:21:12;;;;;;;3.00;1.67;;;27.20;99.50;;;;;;5053924;28;20040;-91
2021/07/26 12:23:49;;;;;;;3.63;2.40;;;27.00;99.90;;;;;;5035442;28;20128;-89
2021/07/26 12:26:17;;;;;;;3.60;2.13;;;27.10;99.90;;;;;;5053136;28;20539;-92
2021/07/26 12:29:09;;;;;;;4.40;2.45;;;27.10;99.90;;;;;;5053333;28;20025;-88
2021/07/26 12:31:36;;;;;;;2.40;1.98;;;26.80;99.90;;;;;;5037420;28;20118;-88
2021/07/26 12:34:18;;;;;;;3.05;2.00;;;26.50;99.90;;;;;;5040278;28;20045;-89
2021/07/26 12:36:49;;;;;;;2.58;1.80;;;26.90;99.90;;;;;;5076051;28;20108;-88
2021/07/26 12:39:17;;;;;;;2.50;2.05;;;27.40;99.90;;;;;;5059895;28;20048;-87
2021/07/26 12:41:46;;;;;;;3.85;1.90;;;27.20;99.80;;;;;;5075234;28;20055;-89
2021/07/26 12:44:27;;;;;;;2.40;1.70;;;26.90;99.40;;;;;;5052630;28;20033;-89
2021/07/26 12:46:57;;;;;;;2.33;1.70;;;26.50;99.50;;;;;;5058300;28;20040;-89
2021/07/26 12:49:25;;;;;;;2.67;1.70;;;26.20;99.90;;;;;;5039412;28;20279;-87
2021/07/26 12:51:56;;;;;;;2.33;1.75;;;26.00;99.90;;;;;;5053632;28;20036;-88
2021/07/26 12:54:55;;;;;;;3.25;1.63;;;25.90;99.90;;;;;;5037585;28;20037;-88
2021/07/26 12:57:36;;;;;;;3.78;1.95;;;25.90;99.90;;;;;;5054697;28;20400;-89
2021/07/26 13:00:09;;;;;;;3.22;1.83;;;26.00;99.90;;;;;;5056507;28;20519;-89
2021/07/26 13:02:47;;;;;;;2.63;1.83;;;26.90;99.90;;;;;;5068268;28;20040;-90
2021/07/26 13:05:16;;;;;;;4.45;2.20;;;28.00;99.90;;;;;;5058853;28;20036;-89